Time;durP1;ratioP1;P1;durP2;ratioP2;P2;SDS_P1;SDS_P2;PMS_P1;PMS_P2;Temp;Humidity;BMP_temperature;BMP_pressure;BME280_temperature;BME280_humidity;BME280_pressure;Samples;Min_cycle;Max_cycle;Signal;HPM_P1;HPM_P2
2021/05/24 00:01:18;;;;;;;;;;;;;;;20.83;37.30;99832.13;4417759;32;19961;-52
2021/05/24 00:03:44;;;;;;;;;;;;;;;20.81;37.46;99833.00;4417080;32;19960;-53
2021/05/24 00:06:10;;;;;;;;;;;;;;;20.79;37.61;99825.91;4430157;32;19953;-52
2021/05/24 00:08:36;;;;;;;;;;;;;;;20.83;37.52;99828.59;4434436;32;19962;-51
2021/05/24 00:11:02;;;;;;;;;;;;;;;20.77;37.66;99825.03;4424483;32;19957;-53
2021/05/24 00:13:28;;;;;;;;;;;;;;;20.79;37.58;99815.31;4419297;32;19958;-49
2021/05/24 00:15:54;;;;;;;;;;;;;;;20.77;37.62;99811.78;4428854;32;19953;-53
2021/05/24 00:18:19;;;;;;;;;;;;;;;20.78;37.56;99812.69;4434083;32;20350;-53
2021/05/24 00:20:45;;;;;;;;;;;;;;;20.75;37.61;99818.84;4426372;32;19993;-52
2021/05/24 00:23:11;;;;;;;;;;;;;;;20.71;37.73;99814.44;4419240;32;19969;-54
2021/05/24 00:25:38;;;;;;;;;;;;;;;20.75;37.38;99818.84;4425419;32;19964;-53
2021/05/24 00:28:04;;;;;;;;;;;;;;;20.75;37.52;99816.19;4434156;32;20307;-52
2021/05/24 00:30:33;;;;;;;;;;;;;;;20.74;37.58;99817.09;4428624;32;19951;-53
2021/05/24 00:32:59;;;;;;;;;;;;;;;20.71;37.62;99811.78;4418892;32;19969;-53
2021/05/24 00:35:24;;;;;;;;;;;;;;;20.78;37.15;99807.41;4423003;32;19962;-52
2021/05/24 00:37:50;;;;;;;;;;;;;;;20.71;37.56;99806.50;4435067;32;19950;-51
2021/05/24 00:40:16;;;;;;;;;;;;;;;20.70;37.61;99814.44;4430396;32;19965;-48
2021/05/24 00:42:42;;;;;;;;;;;;;;;20.71;37.37;99814.44;4419734;32;19965;-52
2021/05/24 00:45:08;;;;;;;;;;;;;;;20.76;37.38;99810.03;4418349;32;19965;-50
2021/05/24 00:47:34;;;;;;;;;;;;;;;20.78;37.21;99813.56;4434719;32;19972;-49
2021/05/24 00:50:00;;;;;;;;;;;;;;;20.71;37.54;99811.78;4427017;32;19965;-53
2021/05/24 00:52:26;;;;;;;;;;;;;;;20.72;37.40;99807.38;4434082;32;19990;-53
2021/05/24 00:54:52;;;;;;;;;;;;;;;20.69;37.46;99808.28;4434473;32;20025;-51
2021/05/24 00:57:18;;;;;;;;;;;;;;;20.71;37.14;99789.72;4419586;32;19953;-53
2021/05/24 00:59:44;;;;;;;;;;;;;;;20.75;37.24;99789.75;4418599;32;20352;-51
2021/05/24 01:02:09;;;;;;;;;;;;;;;20.76;36.59;99780.91;4430768;32;19949;-53
2021/05/24 01:04:35;;;;;;;;;;;;;;;20.78;36.58;99778.28;4434278;32;19961;-54
2021/05/24 01:07:01;;;;;;;;;;;;;;;20.78;36.74;99776.50;4422854;32;19991;-49
2021/05/24 01:09:27;;;;;;;;;;;;;;;20.76;36.61;99772.13;4418026;32;19962;-51
2021/05/24 01:11:53;;;;;;;;;;;;;;;20.75;36.55;99778.28;4428354;32;19987;-49
2021/05/24 01:14:19;;;;;;;;;;;;;;;20.73;36.50;99774.72;4433952;32;19981;-52
2021/05/24 01:16:45;;;;;;;;;;;;;;;20.85;36.11;99781.84;4410306;32;19954;-49
2021/05/24 01:19:11;;;;;;;;;;;;;;;20.84;36.36;99778.31;4417830;32;20344;-52
2021/05/24 01:21:37;;;;;;;;;;;;;;;20.77;36.65;99780.03;4424526;32;19958;-54
2021/05/24 01:24:02;;;;;;;;;;;;;;;20.86;35.96;99786.25;4434293;32;19958;-50
2021/05/24 01:26:28;;;;;;;;;;;;;;;20.85;36.08;99779.22;4427337;32;19939;-54
2021/05/24 01:28:54;;;;;;;;;;;;;;;20.89;35.98;99776.56;4418049;32;19954;-50
2021/05/24 01:31:20;;;;;;;;;;;;;;;20.86;36.10;99778.31;4422107;32;19949;-50
2021/05/24 01:33:46;;;;;;;;;;;;;;;20.89;36.06;99773.03;4434158;32;19990;-52
2021/05/24 01:36:12;;;;;;;;;;;;;;;20.95;35.74;99772.16;4429787;32;19953;-51
2021/05/24 01:38:38;;;;;;;;;;;;;;;20.92;35.81;99765.97;4418145;32;20343;-54
2021/05/24 01:41:04;;;;;;;;;;;;;;;20.88;35.68;99766.88;4420077;32;19965;-51
2021/05/24 01:43:30;;;;;;;;;;;;;;;20.88;35.93;99771.25;4433949;32;19938;-53
2021/05/24 01:45:56;;;;;;;;;;;;;;;20.95;35.49;99778.34;4432673;32;19993;-51
2021/05/24 01:48:22;;;;;;;;;;;;;;;20.95;35.47;99767.75;4417881;32;19954;-52
2021/05/24 01:50:47;;;;;;;;;;;;;;;20.91;35.90;99768.62;4417163;32;19988;-51
2021/05/24 01:53:13;;;;;;;;;;;;;;;20.89;35.76;99767.72;4431882;32;19973;-55
2021/05/24 01:55:39;;;;;;;;;;;;;;;20.87;35.80;99764.22;4433358;32;20349;-53
2021/05/24 01:58:05;;;;;;;;;;;;;;;20.85;35.66;99758.03;4433411;32;19970;-53
2021/05/24 02:00:31;;;;;;;;;;;;;;;20.87;35.47;99764.22;4432194;32;19950;-53
2021/05/24 02:02:57;;;;;;;;;;;;;;;20.82;35.66;99755.41;4433021;32;20333;-52
2021/05/24 02:05:23;;;;;;;;;;;;;;;20.82;35.52;99750.09;4432296;32;20041;-52
2021/05/24 02:07:49;;;;;;;;;;;;;;;20.82;35.64;99760.69;4423256;32;19980;-51
2021/05/24 02:10:14;;;;;;;;;;;;;;;20.81;35.75;99756.25;4416987;32;19973;-53
2021/05/24 02:12:40;;;;;;;;;;;;;;;20.81;35.66;99743.03;4422946;32;19942;-51
2021/05/24 02:15:06;;;;;;;;;;;;;;;20.78;35.88;99747.41;4424258;32;19969;-52
2021/05/24 02:17:32;;;;;;;;;;;;;;;20.75;36.19;99742.13;4425634;32;19942;-52
2021/05/24 02:19:58;;;;;;;;;;;;;;;20.74;36.18;99736.81;4425444;32;20082;-50
2021/05/24 02:22:24;;;;;;;;;;;;;;;20.72;36.02;99742.13;4424755;32;19966;-52
2021/05/24 02:24:50;;;;;;;;;;;;;;;20.69;36.15;99736.84;4426517;32;20035;-51
2021/05/24 02:27:16;;;;;;;;;;;;;;;20.68;36.04;99737.72;4424075;32;19996;-53
2021/05/24 02:29:42;;;;;;;;;;;;;;;20.61;36.45;99735.94;4423625;32;19942;-53
2021/05/24 02:32:08;;;;;;;;;;;;;;;20.66;36.29;99731.50;4425053;32;19958;-47
2021/05/24 02:34:33;;;;;;;;;;;;;;;20.68;36.28;99732.44;4425123;32;19974;-53
2021/05/24 02:36:59;;;;;;;;;;;;;;;20.67;35.96;99727.13;4425421;32;19942;-52
2021/05/24 02:39:25;;;;;;;;;;;;;;;20.63;36.32;99726.22;4425084;32;19960;-50
2021/05/24 02:41:51;;;;;;;;;;;;;;;20.60;36.46;99724.44;4425425;32;19992;-50
2021/05/24 02:44:17;;;;;;;;;;;;;;;20.62;36.42;99722.72;4412026;32;19949;-53
2021/05/24 02:46:43;;;;;;;;;;;;;;;20.64;36.03;99725.34;4424843;32;19942;-50
2021/05/24 02:49:09;;;;;;;;;;;;;;;20.64;36.25;99717.41;4427789;32;19954;-52
2021/05/24 02:51:35;;;;;;;;;;;;;;;20.65;36.20;99721.81;4432800;32;19938;-52
2021/05/24 02:54:01;;;;;;;;;;;;;;;20.62;36.37;99712.13;4420545;32;19938;-49
2021/05/24 02:56:26;;;;;;;;;;;;;;;20.59;36.29;99705.97;4418219;32;20694;-51
2021/05/24 02:58:52;;;;;;;;;;;;;;;20.61;36.09;99709.47;4428509;32;19968;-51
2021/05/24 03:01:19;;;;;;;;;;;;;;;20.61;36.17;99710.34;4433039;32;20277;-52
2021/05/24 03:03:45;;;;;;;;;;;;;;;20.60;35.93;99708.59;4423790;32;20331;-51
2021/05/24 03:06:11;;;;;;;;;;;;;;;20.59;36.40;99712.13;4416900;32;19988;-51
2021/05/24 03:08:37;;;;;;;;;;;;;;;20.58;35.96;99710.34;4426412;32;20005;-52
2021/05/24 03:11:03;;;;;;;;;;;;;;;20.55;36.06;99710.34;4433246;32;19985;-52
2021/05/24 03:13:28;;;;;;;;;;;;;;;20.57;36.01;99707.72;4425564;32;20615;-51
2021/05/24 03:15:54;;;;;;;;;;;;;;;20.56;35.81;99703.28;4417739;32;20431;-53
2021/05/24 03:18:20;;;;;;;;;;;;;;;20.57;35.88;99707.72;4423855;32;19953;-50
2021/05/24 03:20:46;;;;;;;;;;;;;;;20.57;36.07;99700.66;4432352;32;19998;-53
2021/05/24 03:23:12;;;;;;;;;;;;;;;20.52;36.26;99698.88;4428450;32;19973;-51
2021/05/24 03:25:38;;;;;;;;;;;;;;;20.55;36.04;99705.06;4418256;32;19958;-52
2021/05/24 03:28:04;;;;;;;;;;;;;;;20.51;35.81;99708.59;4417529;32;19953;-53
2021/05/24 03:30:30;;;;;;;;;;;;;;;20.55;35.69;99704.16;4432083;32;19983;-51
2021/05/24 03:32:55;;;;;;;;;;;;;;;20.56;35.74;99695.34;4433115;32;20348;-51
2021/05/24 03:35:21;;;;;;;;;;;;;;;20.56;35.68;99700.62;4432346;32;19961;-51
2021/05/24 03:37:47;;;;;;;;;;;;;;;20.54;36.07;99699.75;4433222;32;19937;-53
2021/05/24 03:40:13;;;;;;;;;;;;;;;20.57;35.70;99697.16;4417879;32;20290;-53
2021/05/24 03:42:39;;;;;;;;;;;;;;;20.55;35.77;99698.88;4420857;32;19954;-52
2021/05/24 03:45:05;;;;;;;;;;;;;;;20.57;35.56;99698.00;4434382;32;20322;-52
2021/05/24 03:47:31;;;;;;;;;;;;;;;20.56;36.04;99705.94;4436486;32;20244;-53
2021/05/24 03:49:57;;;;;;;;;;;;;;;20.59;35.75;99695.38;4422042;32;19938;-50
2021/05/24 03:52:23;;;;;;;;;;;;;;;20.61;35.81;99704.19;4420833;32;20052;-51
2021/05/24 03:54:49;;;;;;;;;;;;;;;20.55;35.82;99710.34;4432654;32;19952;-51
2021/05/24 03:57:15;;;;;;;;;;;;;;;20.53;35.63;99711.22;4435745;32;19966;-51
2021/05/24 03:59:41;;;;;;;;;;;;;;;20.54;35.70;99708.59;4432700;32;19973;-54
2021/05/24 04:02:07;;;;;;;;;;;;;;;20.57;35.73;99702.44;4434872;32;19954;-51
2021/05/24 04:04:33;;;;;;;;;;;;;;;20.53;35.64;99701.53;4421093;32;19945;-54
2021/05/24 04:07:00;;;;;;;;;;;;;;;20.49;36.04;99692.72;4436121;32;19983;-52
2021/05/24 04:09:26;;;;;;;;;;;;;;;20.53;35.65;99690.97;4427657;32;19974;-52
2021/05/24 04:11:52;;;;;;;;;;;;;;;20.49;35.74;99684.78;4420522;32;19965;-51
2021/05/24 04:14:19;;;;;;;;;;;;;;;20.54;35.56;99675.94;4425789;32;19960;-51
2021/05/24 04:16:45;;;;;;;;;;;;;;;20.48;36.17;99684.78;4435851;32;19957;-51
2021/05/24 04:19:11;;;;;;;;;;;;;;;20.48;35.71;99674.19;4430280;32;19973;-51
2021/05/24 04:21:37;;;;;;;;;;;;;;;20.52;35.57;99683.91;4420296;32;20367;-52
2021/05/24 04:24:03;;;;;;;;;;;;;;;20.54;35.81;99678.59;4423205;32;19933;-53
2021/05/24 04:26:29;;;;;;;;;;;;;;;20.54;35.63;99678.59;4435454;32;20345;-51
2021/05/24 04:28:55;;;;;;;;;;;;;;;20.53;35.65;99664.50;4432414;32;20004;-51
2021/05/24 04:31:22;;;;;;;;;;;;;;;20.55;35.60;99678.63;4430509;32;20375;-53
2021/05/24 04:33:48;;;;;;;;;;;;;;;20.53;35.90;99675.09;4435707;32;19942;-53
2021/05/24 04:36:14;;;;;;;;;;;;;;;20.52;35.64;99675.97;4434759;32;19958;-51
2021/05/24 04:38:39;;;;;;;;;;;;;;;20.53;35.53;99674.19;4435364;32;20440;-52
2021/05/24 04:41:05;;;;;;;;;;;;;;;20.52;35.68;99665.41;4434573;32;20028;-53
2021/05/24 04:43:33;;;;;;;;;;;;;;;20.54;35.59;99668.03;4435578;32;20006;-54
2021/05/24 04:45:59;;;;;;;;;;;;;;;20.52;35.58;99668.03;4421270;32;20364;-48
2021/05/24 04:48:25;;;;;;;;;;;;;;;20.51;35.98;99668.94;4419342;32;19962;-52
2021/05/24 04:50:51;;;;;;;;;;;;;;;20.49;35.95;99674.19;4431636;32;20274;-51
2021/05/24 04:53:17;;;;;;;;;;;;;;;20.49;35.92;99666.25;4434518;32;20330;-50
2021/05/24 04:55:44;;;;;;;;;;;;;;;20.47;36.04;99670.69;4424577;32;19965;-50
2021/05/24 04:58:10;;;;;;;;;;;;;;;20.46;35.97;99663.63;4421852;32;20018;-51
2021/05/24 05:00:36;;;;;;;;;;;;;;;20.53;35.94;99672.44;4425510;32;19976;-49
2021/05/24 05:03:02;;;;;;;;;;;;;;;20.48;35.71;99661.84;4435520;32;19953;-52
2021/05/24 05:05:28;;;;;;;;;;;;;;;20.54;35.74;99666.28;4433916;32;20026;-51
2021/05/24 05:07:54;;;;;;;;;;;;;;;20.54;35.70;99655.69;4426438;32;19972;-52
2021/05/24 05:10:20;;;;;;;;;;;;;;;20.55;35.51;99662.75;4425167;32;19942;-51
2021/05/24 05:12:46;;;;;;;;;;;;;;;20.54;36.01;99657.44;4426881;32;19956;-52
2021/05/24 05:15:12;;;;;;;;;;;;;;;20.52;35.80;99661.84;4424883;32;20008;-51
2021/05/24 05:17:37;;;;;;;;;;;;;;;20.55;35.87;99656.56;4427584;32;19972;-50
2021/05/24 05:20:03;;;;;;;;;;;;;;;20.56;35.75;99653.03;4425297;32;20401;-50
2021/05/24 05:22:29;;;;;;;;;;;;;;;20.55;35.69;99656.56;4426922;32;19942;-53
2021/05/24 05:24:55;;;;;;;;;;;;;;;20.56;35.77;99663.59;4427666;32;19986;-54
2021/05/24 05:27:21;;;;;;;;;;;;;;;20.55;35.67;99656.56;4424864;32;20380;-52
2021/05/24 05:29:47;;;;;;;;;;;;;;;20.51;35.97;99661.00;4427031;32;19946;-52
2021/05/24 05:32:13;;;;;;;;;;;;;;;20.52;35.87;99648.63;4424708;32;19969;-52
2021/05/24 05:34:39;;;;;;;;;;;;;;;20.53;35.82;99642.47;4427800;32;20008;-52
2021/05/24 05:37:05;;;;;;;;;;;;;;;20.49;35.82;99642.47;4425704;32;19934;-54
2021/05/24 05:39:31;;;;;;;;;;;;;;;20.55;35.81;99651.25;4426792;32;19947;-50
2021/05/24 05:41:57;;;;;;;;;;;;;;;20.54;35.84;99641.56;4426145;32;19993;-51
2021/05/24 05:44:23;;;;;;;;;;;;;;;20.51;35.93;99645.13;4425992;32;20049;-49
2021/05/24 05:46:49;;;;;;;;;;;;;;;20.56;35.84;99640.69;4425385;32;19965;-52
2021/05/24 05:49:14;;;;;;;;;;;;;;;20.58;35.90;99651.28;4425260;32;19988;-51
2021/05/24 05:51:40;;;;;;;;;;;;;;;20.60;35.79;99649.53;4424856;32;20355;-51
2021/05/24 05:54:06;;;;;;;;;;;;;;;20.62;35.78;99646.00;4426718;32;19978;-51
2021/05/24 05:56:32;;;;;;;;;;;;;;;20.56;36.05;99642.44;4424765;32;19954;-50
2021/05/24 05:58:58;;;;;;;;;;;;;;;20.52;36.20;99643.34;4422768;32;19965;-54
2021/05/24 06:01:24;;;;;;;;;;;;;;;20.58;35.87;99635.41;4412973;32;19964;-51
2021/05/24 06:03:50;;;;;;;;;;;;;;;20.57;35.88;99631.88;4427735;32;19942;-51
2021/05/24 06:06:16;;;;;;;;;;;;;;;20.59;36.01;99632.75;4425849;32;20012;-49
2021/05/24 06:08:42;;;;;;;;;;;;;;;20.53;36.18;99627.47;4425146;32;19958;-51
2021/05/24 06:11:08;;;;;;;;;;;;;;;20.56;36.12;99618.63;4426786;32;19991;-49
2021/05/24 06:13:34;;;;;;;;;;;;;;;20.57;36.16;99629.22;4425777;32;19956;-51
2021/05/24 06:16:00;;;;;;;;;;;;;;;20.61;36.32;99635.41;4429081;32;20021;-51
2021/05/24 06:18:26;;;;;;;;;;;;;;;20.60;36.19;99633.66;4418763;32;20017;-50
2021/05/24 06:20:52;;;;;;;;;;;;;;;20.59;36.17;99616.03;4420004;32;19946;-52
2021/05/24 06:23:17;;;;;;;;;;;;;;;20.59;36.46;99621.31;4433412;32;20302;-52
2021/05/24 06:25:44;;;;;;;;;;;;;;;20.58;36.20;99609.84;4431941;32;19988;-52
2021/05/24 06:28:10;;;;;;;;;;;;;;;20.60;36.17;99607.19;4417011;32;19968;-52
2021/05/24 06:30:36;;;;;;;;;;;;;;;20.62;36.10;99606.31;4418233;32;20329;-54
2021/05/24 06:33:02;;;;;;;;;;;;;;;20.61;36.38;99606.31;4433349;32;19978;-50
2021/05/24 06:35:28;;;;;;;;;;;;;;;20.59;36.25;99602.78;4432933;32;20607;-53
2021/05/24 06:37:54;;;;;;;;;;;;;;;20.59;36.43;99601.00;4419753;32;20025;-54
2021/05/24 06:40:20;;;;;;;;;;;;;;;20.64;36.08;99599.25;4417301;32;20024;-49
2021/05/24 06:42:46;;;;;;;;;;;;;;;20.63;36.32;99612.47;4431443;32;20421;-53
2021/05/24 06:45:12;;;;;;;;;;;;;;;20.60;36.48;99592.19;4433069;32;19961;-52
2021/05/24 06:47:38;;;;;;;;;;;;;;;20.65;36.10;99594.84;4422804;32;19970;-53
2021/05/24 06:50:04;;;;;;;;;;;;;;;20.60;36.37;99602.78;4417343;32;19942;-50
2021/05/24 06:52:30;;;;;;;;;;;;;;;20.56;36.52;99587.78;4427344;32;20240;-48
2021/05/24 06:54:56;;;;;;;;;;;;;;;20.53;36.52;99594.84;4432854;32;19950;-53
2021/05/24 06:57:22;;;;;;;;;;;;;;;20.56;36.43;99602.78;4425342;32;19958;-53
2021/05/24 06:59:47;;;;;;;;;;;;;;;20.61;36.47;99603.66;4417942;32;19957;-52
2021/05/24 07:02:16;;;;;;;;;;;;;;;20.56;36.54;99600.13;4424265;32;20009;-53
2021/05/24 07:04:43;;;;;;;;;;;;;;;20.58;36.58;99590.44;4428752;32;19958;-54
2021/05/24 07:07:09;;;;;;;;;;;;;;;20.56;36.60;99585.16;4411106;32;19949;-53
2021/05/24 07:09:35;;;;;;;;;;;;;;;20.58;36.61;99593.09;4424454;32;20386;-49
2021/05/24 07:12:00;;;;;;;;;;;;;;;20.61;36.50;99587.78;4425051;32;20006;-52
2021/05/24 07:14:26;;;;;;;;;;;;;;;20.66;36.39;99583.38;4423393;32;20318;-53
2021/05/24 07:16:54;;;;;;;;;;;;;;;20.69;36.46;99585.12;4421082;32;19957;-51
2021/05/24 07:19:19;;;;;;;;;;;;;;;20.70;36.41;99574.56;4432382;32;20240;-51
2021/05/24 07:21:45;;;;;;;;;;;;;;;20.68;36.56;99575.44;4430879;32;20105;-51
2021/05/24 07:24:11;;;;;;;;;;;;;;;20.70;36.47;99582.50;4417474;32;19984;-52
2021/05/24 07:26:37;;;;;;;;;;;;;;;20.72;36.50;99583.38;4418620;32;19969;-53
2021/05/24 07:29:03;;;;;;;;;;;;;;;20.73;36.51;99582.50;4432293;32;19957;-52
2021/05/24 07:31:29;;;;;;;;;;;;;;;20.72;36.62;99585.12;4432721;32;19950;-52
2021/05/24 07:33:55;;;;;;;;;;;;;;;20.75;36.61;99585.16;4418519;32;20033;-51
2021/05/24 07:36:21;;;;;;;;;;;;;;;20.74;36.73;99581.59;4416786;32;19942;-52
2021/05/24 07:38:47;;;;;;;;;;;;;;;20.68;36.86;99565.75;4421050;32;19954;-52
2021/05/24 07:41:13;;;;;;;;;;;;;;;20.68;36.84;99578.09;4422946;32;19961;-52
2021/05/24 07:43:38;;;;;;;;;;;;;;;20.67;36.97;99579.84;4425606;32;20330;-52
2021/05/24 07:46:04;;;;;;;;;;;;;;;20.64;37.08;99583.38;4424534;32;19974;-50
2021/05/24 07:48:31;;;;;;;;;;;;;;;20.69;36.91;99586.03;4425011;32;19980;-51
2021/05/24 07:50:56;;;;;;;;;;;;;;;20.71;36.95;99581.63;4423618;32;19942;-51
2021/05/24 07:53:22;;;;;;;;;;;;;;;20.68;37.02;99578.97;4425500;32;20409;-50
2021/05/24 07:55:48;;;;;;;;;;;;;;;20.68;37.11;99568.41;4433047;32;19942;-52
2021/05/24 07:58:14;;;;;;;;;;;;;;;20.69;37.10;99570.16;4425233;32;19954;-53
2021/05/24 08:00:40;;;;;;;;;;;;;;;20.65;37.26;99584.25;4419068;32;20349;-52
2021/05/24 08:03:06;;;;;;;;;;;;;;;20.64;37.25;99572.81;4426908;32;19973;-52
2021/05/24 08:05:32;;;;;;;;;;;;;;;20.70;37.15;99571.03;4424611;32;19970;-51
2021/05/24 08:07:58;;;;;;;;;;;;;;;20.67;37.26;99569.25;4427127;32;19954;-53
2021/05/24 08:10:24;;;;;;;;;;;;;;;20.68;37.29;99578.09;4424549;32;20652;-51
2021/05/24 08:12:50;;;;;;;;;;;;;;;20.67;37.30;99573.69;4424842;32;19968;-52
2021/05/24 08:15:19;;;;;;;;;;;;;;;20.67;37.37;99578.97;4421805;32;19990;-54
2021/05/24 08:17:45;;;;;;;;;;;;;;;20.67;37.36;99579.84;4421542;32;19954;-50
2021/05/24 08:20:11;;;;;;;;;;;;;;;20.70;37.32;99592.19;4426760;32;19961;-52
2021/05/24 08:22:37;;;;;;;;;;;;;;;20.69;37.35;99591.31;4417396;32;19961;-49
2021/05/24 08:25:03;;;;;;;;;;;;;;;20.71;37.35;99584.25;4423089;32;19965;-49
2021/05/24 08:27:29;;;;;;;;;;;;;;;20.73;37.33;99582.50;4427503;32;19949;-52
2021/05/24 08:29:55;;;;;;;;;;;;;;;20.73;37.40;99577.19;4425968;32;19946;-53
2021/05/24 08:32:21;;;;;;;;;;;;;;;20.75;37.32;99564.84;4427612;32;19959;-50
2021/05/24 08:34:46;;;;;;;;;;;;;;;20.75;37.34;99564.84;4424528;32;19968;-52
2021/05/24 08:37:13;;;;;;;;;;;;;;;20.76;37.38;99566.59;4434154;32;19966;-54
2021/05/24 08:39:39;;;;;;;;;;;;;;;20.79;37.35;99565.72;4434132;32;19969;-51
2021/05/24 08:42:05;;;;;;;;;;;;;;;20.81;37.38;99565.72;4431351;32;19966;-53
2021/05/24 08:44:32;;;;;;;;;;;;;;;20.84;37.32;99566.59;4433069;32;20263;-49
2021/05/24 08:46:59;;;;;;;;;;;;;;;20.85;37.32;99564.84;4434062;32;20353;-51
2021/05/24 08:49:25;;;;;;;;;;;;;;;20.85;37.32;99548.97;4423259;32;20361;-50
2021/05/24 08:51:51;;;;;;;;;;;;;;;20.86;37.28;99550.75;4418601;32;19950;-56
2021/05/24 08:54:16;;;;;;;;;;;;;;;20.73;37.90;99556.03;4426765;32;20282;-57
2021/05/24 08:56:42;;;;;;;;;;;;;;;20.20;39.10;99545.53;4433287;32;19957;-58
2021/05/24 08:59:11;;;;;;;;;;;;;;;19.85;39.45;99548.09;4432662;32;20009;-55
2021/05/24 09:01:37;;;;;;;;;;;;;;;19.79;39.93;99546.31;4433471;32;20079;-56
2021/05/24 09:04:03;;;;;;;;;;;;;;;19.86;39.80;99539.28;4427879;32;19946;-57
2021/05/24 09:06:29;;;;;;;;;;;;;;;19.45;40.60;99540.97;4418681;32;19955;-57
2021/05/24 09:08:58;;;;;;;;;;;;;;;19.47;40.52;99532.16;4427049;32;19961;-57
2021/05/24 09:11:24;;;;;;;;;;;;;;;19.22;40.85;99515.38;4433164;32;19965;-56
2021/05/24 09:13:51;;;;;;;;;;;;;;;19.63;40.39;99519.88;4433724;32;19949;-58
2021/05/24 09:16:17;;;;;;;;;;;;;;;19.47;40.57;99520.75;4432996;32;19991;-57
2021/05/24 09:18:43;;;;;;;;;;;;;;;19.36;40.56;99513.66;4430807;32;19945;-57
2021/05/24 09:21:09;;;;;;;;;;;;;;;19.26;40.96;99501.31;4417100;32;19954;-57
2021/05/24 09:23:35;;;;;;;;;;;;;;;19.21;40.96;99497.78;4419297;32;19969;-56
2021/05/24 09:26:02;;;;;;;;;;;;;;;19.37;40.92;99489.03;4434780;32;19993;-54
2021/05/24 09:28:28;;;;;;;;;;;;;;;19.50;40.80;99494.34;4434629;32;20564;-56
2021/05/24 09:30:54;;;;;;;;;;;;;;;19.45;40.80;99483.75;4418791;32;20017;-56
2021/05/24 09:33:20;;;;;;;;;;;;;;;19.14;41.33;99474.87;4418773;32;19946;-57
2021/05/24 09:35:46;;;;;;;;;;;;;;;19.18;41.71;99466.09;4432984;32;19981;-55
2021/05/24 09:38:12;;;;;;;;;;;;;;;19.25;41.37;99470.53;4432296;32;20286;-55
2021/05/24 09:40:38;;;;;;;;;;;;;;;18.93;42.38;99461.59;4433602;32;19961;-56
2021/05/24 09:43:04;;;;;;;;;;;;;;;19.33;41.28;99466.16;4433773;32;20311;-56
2021/05/24 09:45:30;;;;;;;;;;;;;;;19.65;40.63;99457.38;4433983;32;19938;-54
2021/05/24 09:47:55;;;;;;;;;;;;;;;19.40;41.14;99452.94;4434543;32;19993;-56
2021/05/24 09:50:22;;;;;;;;;;;;;;;18.99;41.56;99450.19;4423808;32;19950;-57
2021/05/24 09:52:47;;;;;;;;;;;;;;;19.37;40.98;99446.78;4418372;32;19950;-57
2021/05/24 09:55:13;;;;;;;;;;;;;;;19.12;41.48;99440.56;4426675;32;19995;-56
2021/05/24 09:57:39;;;;;;;;;;;;;;;19.73;40.33;99435.38;4434151;32;19991;-56
2021/05/24 10:00:05;;;;;;;;;;;;;;;20.14;39.50;99429.19;4425618;32;19960;-56
2021/05/24 10:02:31;;;;;;;;;;;;;;;20.12;39.42;99422.16;4418667;32;20331;-55
2021/05/24 10:04:57;;;;;;;;;;;;;;;19.93;39.38;99425.69;4423924;32;19941;-55
2021/05/24 10:07:23;;;;;;;;;;;;;;;19.80;39.37;99423.91;4431944;32;20037;-57
2021/05/24 10:09:49;;;;;;;;;;;;;;;19.46;39.72;99427.44;4433698;32;20327;-56
2021/05/24 10:12:16;;;;;;;;;;;;;;;19.96;39.08;99414.25;4433225;32;19950;-54
2021/05/24 10:14:42;;;;;;;;;;;;;;;19.71;39.77;99408.09;4433510;32;19957;-56
2021/05/24 10:17:08;;;;;;;;;;;;;;;19.99;39.87;99403.66;4432745;32;19954;-56
2021/05/24 10:19:34;;;;;;;;;;;;;;;19.66;39.92;99406.31;4432110;32;19961;-56
2021/05/24 10:22:00;;;;;;;;;;;;;;;19.54;39.44;99403.66;4418494;32;19950;-55
2021/05/24 10:24:26;;;;;;;;;;;;;;;20.01;38.81;99394.00;4418007;32;19968;-55
2021/05/24 10:26:52;;;;;;;;;;;;;;;20.05;38.24;99392.22;4418478;32;19960;-53
2021/05/24 10:29:18;;;;;;;;;;;;;;;19.66;39.46;99401.03;4417658;32;19999;-55
2021/05/24 10:31:44;;;;;;;;;;;;;;;19.47;38.63;99388.72;4418090;32;19950;-53
2021/05/24 10:34:10;;;;;;;;;;;;;;;19.30;39.23;99396.63;4418262;32;19954;-52
2021/05/24 10:36:36;;;;;;;;;;;;;;;19.50;39.72;99388.72;4430487;32;19956;-55
2021/05/24 10:39:01;;;;;;;;;;;;;;;19.60;38.61;99381.66;4428777;32;19954;-55
2021/05/24 10:41:27;;;;;;;;;;;;;;;19.41;37.49;99388.69;4424625;32;19985;-51
2021/05/24 10:43:54;;;;;;;;;;;;;;;19.92;37.33;99375.47;4432161;32;19953;-54
2021/05/24 10:46:20;;;;;;;;;;;;;;;19.63;36.11;99369.34;4419254;32;19948;-55
2021/05/24 10:48:46;;;;;;;;;;;;;;;19.20;35.38;99364.03;4416184;32;19981;-54
2021/05/24 10:51:14;;;;;;;;;;;;;;;19.42;36.06;99364.06;4419607;32;19950;-55
2021/05/24 10:53:39;;;;;;;;;;;;;;;19.34;36.66;99366.69;4432338;32;20366;-53
2021/05/24 10:56:05;;;;;;;;;;;;;;;19.48;36.58;99358.78;4424868;32;19950;-53
2021/05/24 10:58:31;;;;;;;;;;;;;;;19.40;36.79;99360.53;4416304;32;20261;-55
2021/05/24 11:01:01;;;;;;;;;;;;;;;19.26;36.74;99358.78;4422816;32;19977;-54
2021/05/24 11:03:27;;;;;;;;;;;;;;;19.21;37.32;99360.53;4416338;32;19954;-55
2021/05/24 11:05:53;;;;;;;;;;;;;;;19.05;37.79;99376.34;4421693;32;19968;-56
2021/05/24 11:08:18;;;;;;;;;;;;;;;19.02;39.32;99371.06;4431025;32;19963;-55
2021/05/24 11:10:45;;;;;;;;;;;;;;;19.17;38.77;99353.47;4431278;32;20015;-54
2021/05/24 11:13:11;;;;;;;;;;;;;;;19.17;37.68;99353.47;4430765;32;19946;-53
2021/05/24 11:15:37;;;;;;;;;;;;;;;19.10;37.87;99347.31;4429336;32;19982;-55
2021/05/24 11:18:03;;;;;;;;;;;;;;;19.35;38.28;99342.06;4416518;32;19942;-54
2021/05/24 11:20:29;;;;;;;;;;;;;;;19.34;37.56;99330.63;4416460;32;19965;-55
2021/05/24 11:22:55;;;;;;;;;;;;;;;19.69;36.98;99335.88;4431042;32;19950;-53
2021/05/24 11:28:06;;;;;;;;;;;;;;;19.42;38.71;99311.25;4417776;32;20022;-52
2021/05/24 11:30:31;;;;;;;;;;;;;;;19.56;38.20;99320.03;4417058;32;19989;-54
2021/05/24 11:32:57;;;;;;;;;;;;;;;19.99;37.35;99310.31;4428764;32;20375;-53
2021/05/24 11:35:23;;;;;;;;;;;;;;;19.78;38.52;99315.63;4426599;32;19986;-53
2021/05/24 11:37:49;;;;;;;;;;;;;;;19.76;37.56;99304.19;4425744;32;19998;-54
2021/05/24 11:40:15;;;;;;;;;;;;;;;19.93;36.67;99298.00;4417460;32;20409;-55
2021/05/24 11:42:41;;;;;;;;;;;;;;;19.66;36.73;99294.50;4430503;32;20051;-54
2021/05/24 11:45:07;;;;;;;;;;;;;;;19.58;37.10;99291.87;4431856;32;20008;-52
2021/05/24 11:47:33;;;;;;;;;;;;;;;19.92;36.58;99291.81;4432931;32;19965;-53
2021/05/24 11:49:59;;;;;;;;;;;;;;;19.72;36.79;99288.34;4432293;32;19954;-56
2021/05/24 11:52:25;;;;;;;;;;;;;;;19.84;36.50;99287.41;4422184;32;19973;-55
2021/05/24 11:54:51;;;;;;;;;;;;;;;20.02;34.75;99283.87;4428648;32;19969;-51
2021/05/24 11:57:17;;;;;;;;;;;;;;;19.90;33.86;99279.50;4431013;32;19973;-54
2021/05/24 11:59:43;;;;;;;;;;;;;;;19.99;33.75;99275.97;4432724;32;20345;-53
2021/05/24 12:02:08;;;;;;;;;;;;;;;20.43;33.85;99276.66;4424036;32;19989;-55
2021/05/24 12:04:36;;;;;;;;;;;;;;;20.78;32.32;99273.78;4430341;32;19947;-54
2021/05/24 12:07:02;;;;;;;;;;;;;;;20.62;32.27;99272.13;4427247;32;19960;-54
2021/05/24 12:09:28;;;;;;;;;;;;;;;20.97;33.60;99278.09;4435484;32;19958;-55
2021/05/24 12:11:54;;;;;;;;;;;;;;;20.51;32.92;99274.84;4427361;32;19950;-52
2021/05/24 12:14:20;;;;;;;;;;;;;;;20.72;33.28;99278.22;4427652;32;20797;-56
2021/05/24 12:16:46;;;;;;;;;;;;;;;20.89;33.07;99273.75;4427599;32;20004;-55
2021/05/24 12:19:12;;;;;;;;;;;;;;;21.04;32.48;99269.22;4418767;32;19950;-55
2021/05/24 12:21:38;;;;;;;;;;;;;;;20.67;33.12;99275.63;4420510;32;19982;-56
2021/05/24 12:24:04;;;;;;;;;;;;;;;20.90;33.84;99278.16;4425841;32;20587;-54
2021/05/24 12:26:30;;;;;;;;;;;;;;;21.11;31.82;99259.47;4419873;32;19942;-56
2021/05/24 12:28:56;;;;;;;;;;;;;;;21.21;32.68;99255.84;4427582;32;19992;-50
2021/05/24 12:31:22;;;;;;;;;;;;;;;21.20;32.05;99259.41;4419517;32;19950;-53
2021/05/24 12:33:48;;;;;;;;;;;;;;;21.19;32.64;99260.28;4425409;32;19994;-51
2021/05/24 12:36:17;;;;;;;;;;;;;;;21.02;32.17;99256.00;4423413;32;20043;-54
2021/05/24 12:38:52;;;;;;;;;;;;;;;20.90;31.84;99245.50;4431146;32;20404;-55
2021/05/24 12:41:19;;;;;;;;;;;;;;;21.11;31.94;99243.59;4425239;32;19957;-56
2021/05/24 12:43:45;;;;;;;;;;;;;;;20.95;32.31;99238.44;4432525;32;20536;-53